Time;durP1;ratioP1;P1;durP2;ratioP2;P2;SDS_P1;SDS_P2;PMS_P1;PMS_P2;Temp;Humidity;BMP_temperature;BMP_pressure;BME280_temperature;BME280_humidity;BME280_pressure;Samples;Min_cycle;Max_cycle;Signal;HPM_P1;HPM_P2
2022/01/14 00:01:59;;;;;;;10.02;7.07;;;;;;;;;;5024837;28;20025;-41
2022/01/14 00:04:24;;;;;;;9.30;7.15;;;;;;;;;;5024481;28;20044;-40
2022/01/14 00:06:50;;;;;;;9.43;7.13;;;;;;;;;;5042324;28;20506;-40
2022/01/14 00:09:16;;;;;;;9.48;7.80;;;;;;;;;;5041933;28;20530;-40
2022/01/14 00:11:58;;;;;;;8.98;7.10;;;;;;;;;;5033622;28;20091;-40
2022/01/14 00:14:42;;;;;;;8.30;6.88;;;;;;;;;;5030752;28;20095;-40
2022/01/14 00:17:09;;;;;;;8.77;7.22;;;;;;;;;;5030815;28;20029;-41
2022/01/14 00:19:35;;;;;;;10.13;7.63;;;;;;;;;;5036391;28;20028;-37
2022/01/14 00:22:06;;;;;;;9.23;6.88;;;;;;;;;;5024030;28;20084;-40
2022/01/14 00:31:41;;;;;;;7.85;6.72;;;;;;;;;;5032063;28;20522;-39
2022/01/14 00:33:05;;;;;;;9.00;6.93;;;;;;;;;;5033343;28;20040;-40
2022/01/14 00:35:31;;;;;;;7.90;6.65;;;;;;;;;;5024575;28;20825;-40
2022/01/14 00:37:56;;;;;;;8.50;6.85;;;;;;;;;;5035958;28;20033;-38
2022/01/14 00:40:22;;;;;;;7.53;6.35;;;;;;;;;;5037262;28;20148;-40
2022/01/14 00:42:48;;;;;;;8.82;7.35;;;;;;;;;;5034985;28;20206;-41
2022/01/14 00:45:13;;;;;;;8.45;6.63;;;;;;;;;;5043981;28;20064;-39
2022/01/14 00:47:40;;;;;;;9.55;7.10;;;;;;;;;;5043687;28;20476;-36
2022/01/14 00:50:09;;;;;;;9.10;6.65;;;;;;;;;;5043076;28;20032;-41
2022/01/14 00:52:36;;;;;;;8.93;7.00;;;;;;;;;;5024085;28;20117;-38
2022/01/14 00:55:02;;;;;;;9.23;6.68;;;;;;;;;;5034014;28;20040;-40
2022/01/14 01:00:11;;;;;;;8.90;6.47;;;;;;;;;;5034659;28;20480;-40
2022/01/14 01:02:37;;;;;;;9.13;7.05;;;;;;;;;;5043259;28;20112;-39
2022/01/14 01:05:03;;;;;;;10.20;7.15;;;;;;;;;;5029628;28;20029;-40
2022/01/14 01:07:29;;;;;;;10.38;6.85;;;;;;;;;;5024480;28;20037;-40
2022/01/14 01:09:54;;;;;;;9.63;7.10;;;;;;;;;;5023640;28;20079;-40
2022/01/14 01:13:23;;;;;;;10.43;7.65;;;;;;;;;;5023987;28;20084;-40
2022/01/14 01:15:16;;;;;;;9.20;6.95;;;;;;;;;;5023884;28;20429;-37
2022/01/14 01:17:42;;;;;;;9.27;7.05;;;;;;;;;;5023659;28;20025;-36
2022/01/14 01:20:11;;;;;;;8.68;7.05;;;;;;;;;;5024383;28;20566;-41
2022/01/14 01:22:36;;;;;;;10.43;7.80;;;;;;;;;;5024291;28;20025;-36
2022/01/14 01:25:02;;;;;;;9.90;7.38;;;;;;;;;;5024654;28;20132;-41
2022/01/14 01:27:29;;;;;;;10.32;6.95;;;;;;;;;;5024289;28;20044;-40
2022/01/14 01:30:11;;;;;;;8.38;6.90;;;;;;;;;;5024653;28;20407;-40
2022/01/14 01:32:37;;;;;;;10.45;7.00;;;;;;;;;;5024121;28;20044;-41
2022/01/14 01:35:03;;;;;;;8.48;6.85;;;;;;;;;;5024252;28;20040;-39
2022/01/14 01:37:28;;;;;;;9.52;7.03;;;;;;;;;;5027353;28;20030;-40
2022/01/14 01:39:54;;;;;;;8.85;6.70;;;;;;;;;;5027782;28;20025;-38
2022/01/14 01:42:26;;;;;;;9.25;6.93;;;;;;;;;;5027855;28;20077;-40
2022/01/14 01:44:52;;;;;;;9.07;6.93;;;;;;;;;;5027974;28;20029;-35
2022/01/14 01:47:19;;;;;;;9.85;7.60;;;;;;;;;;5027726;28;20496;-41
2022/01/14 01:49:45;;;;;;;8.18;6.30;;;;;;;;;;5027666;28;20044;-40
2022/01/14 01:52:10;;;;;;;10.20;7.43;;;;;;;;;;5027385;28;20021;-39
2022/01/14 01:54:36;;;;;;;9.07;6.93;;;;;;;;;;5026547;28;20110;-37
2022/01/14 01:57:01;;;;;;;8.48;6.78;;;;;;;;;;5027238;28;20100;-41
2022/01/14 01:59:27;;;;;;;9.60;7.05;;;;;;;;;;5027559;28;20108;-40
2022/01/14 02:01:55;;;;;;;9.63;7.05;;;;;;;;;;5026772;28;20033;-39
2022/01/14 02:04:21;;;;;;;9.35;6.40;;;;;;;;;;5027485;28;20037;-39
2022/01/14 02:06:47;;;;;;;9.13;6.97;;;;;;;;;;5027501;28;20076;-39
2022/01/14 02:09:12;;;;;;;9.30;6.97;;;;;;;;;;5026571;28;20041;-37
2022/01/14 02:11:38;;;;;;;8.50;6.60;;;;;;;;;;5026263;28;20556;-41
2022/01/14 02:14:13;;;;;;;8.75;6.78;;;;;;;;;;5027318;28;20021;-39
2022/01/14 02:17:13;;;;;;;8.68;6.63;;;;;;;;;;5027011;28;20036;-39
2022/01/14 02:19:42;;;;;;;9.60;7.18;;;;;;;;;;5026691;28;20120;-40
2022/01/14 02:22:14;;;;;;;9.88;7.00;;;;;;;;;;5027303;28;20033;-39
2022/01/14 02:27:07;;;;;;;8.90;6.90;;;;;;;;;;5026982;28;20045;-39
2022/01/14 02:29:33;;;;;;;8.23;6.15;;;;;;;;;;5027004;28;20076;-38
2022/01/14 02:31:59;;;;;;;9.63;6.63;;;;;;;;;;5027064;28;20199;-39
2022/01/14 02:34:24;;;;;;;9.82;6.47;;;;;;;;;;5026692;28;20042;-39
2022/01/14 02:36:50;;;;;;;9.43;6.72;;;;;;;;;;5026754;28;20029;-40
2022/01/14 02:39:16;;;;;;;9.43;6.72;;;;;;;;;;5026429;28;20455;-37
2022/01/14 02:41:43;;;;;;;9.93;7.05;;;;;;;;;;5025842;28;20373;-38
2022/01/14 02:44:10;;;;;;;8.35;6.25;;;;;;;;;;5027075;28;20868;-38
2022/01/14 02:46:41;;;;;;;9.07;6.95;;;;;;;;;;5026455;28;20152;-39
2022/01/14 02:49:06;;;;;;;8.32;6.25;;;;;;;;;;5026027;28;20401;-40
2022/01/14 02:51:32;;;;;;;8.98;6.90;;;;;;;;;;5034641;28;20040;-38
2022/01/14 02:54:10;;;;;;;7.70;5.68;;;;;;;;;;5046442;28;20121;-40
2022/01/14 02:56:36;;;;;;;8.55;6.40;;;;;;;;;;5046094;28;20072;-39
2022/01/14 02:59:01;;;;;;;8.63;6.22;;;;;;;;;;5046370;28;20021;-39
2022/01/14 03:01:27;;;;;;;8.68;6.47;;;;;;;;;;5046265;28;20549;-40
2022/01/14 03:03:57;;;;;;;8.43;6.38;;;;;;;;;;5046285;28;20021;-41
2022/01/14 03:06:22;;;;;;;9.45;6.65;;;;;;;;;;5045726;28;20025;-36
2022/01/14 03:08:48;;;;;;;9.38;6.43;;;;;;;;;;5043791;28;20138;-39
2022/01/14 03:11:26;;;;;;;9.02;6.43;;;;;;;;;;5027998;28;20083;-40
2022/01/14 03:13:51;;;;;;;8.25;5.95;;;;;;;;;;5007948;28;20040;-41
2022/01/14 03:16:20;;;;;;;8.57;6.40;;;;;;;;;;5024755;28;20029;-37
2022/01/14 03:18:50;;;;;;;8.60;6.20;;;;;;;;;;5025869;28;20036;-40
2022/01/14 03:21:17;;;;;;;9.02;6.60;;;;;;;;;;5025887;28;20080;-40
2022/01/14 03:23:47;;;;;;;8.25;5.93;;;;;;;;;;5024740;28;20025;-39
2022/01/14 03:26:16;;;;;;;7.30;5.63;;;;;;;;;;5025797;28;20060;-40
2022/01/14 03:28:42;;;;;;;8.18;6.10;;;;;;;;;;5025748;28;20380;-40
2022/01/14 03:31:07;;;;;;;9.23;6.43;;;;;;;;;;5025901;28;20095;-41
2022/01/14 03:33:33;;;;;;;7.30;5.93;;;;;;;;;;5025920;28;20049;-39
2022/01/14 03:35:59;;;;;;;8.27;6.13;;;;;;;;;;5025297;28;20029;-38
2022/01/14 03:38:24;;;;;;;7.90;6.30;;;;;;;;;;5025860;28;20051;-40
2022/01/14 03:40:51;;;;;;;8.45;6.32;;;;;;;;;;5025696;28;20021;-36
2022/01/14 03:43:16;;;;;;;7.60;5.38;;;;;;;;;;5025578;28;20480;-40
2022/01/14 03:45:42;;;;;;;7.40;5.75;;;;;;;;;;5025148;28;20494;-40
2022/01/14 03:48:07;;;;;;;6.72;5.30;;;;;;;;;;5024897;28;20018;-40
2022/01/14 03:50:36;;;;;;;7.20;5.55;;;;;;;;;;5025344;28;20029;-39
2022/01/14 03:53:02;;;;;;;6.40;4.82;;;;;;;;;;5024487;28;20522;-40
2022/01/14 03:55:27;;;;;;;7.68;5.63;;;;;;;;;;5024710;28;20083;-40
2022/01/14 03:57:53;;;;;;;8.35;6.00;;;;;;;;;;5025326;28;20013;-38
2022/01/14 04:00:19;;;;;;;7.65;5.55;;;;;;;;;;5025205;28;20026;-38
2022/01/14 04:02:44;;;;;;;6.53;5.07;;;;;;;;;;5025191;28;20036;-41
2022/01/14 04:05:10;;;;;;;7.75;5.78;;;;;;;;;;5025010;28;20021;-41
2022/01/14 04:07:36;;;;;;;7.13;5.10;;;;;;;;;;5024661;28;20543;-36
2022/01/14 04:10:02;;;;;;;6.97;5.38;;;;;;;;;;5023638;28;20132;-41
2022/01/14 04:12:44;;;;;;;7.55;5.18;;;;;;;;;;5024817;28;20416;-38
2022/01/14 04:17:55;;;;;;;6.28;4.97;;;;;;;;;;5025097;28;20091;-41
2022/01/14 04:20:20;;;;;;;6.63;5.03;;;;;;;;;;5024223;28;20029;-40
2022/01/14 04:22:48;;;;;;;7.05;5.05;;;;;;;;;;5025189;28;20025;-40
2022/01/14 04:25:14;;;;;;;6.40;4.95;;;;;;;;;;5025102;28;20087;-40
2022/01/14 04:27:39;;;;;;;7.10;5.30;;;;;;;;;;5024573;28;20056;-41
2022/01/14 04:30:05;;;;;;;6.03;4.88;;;;;;;;;;5025331;28;20025;-40
2022/01/14 04:32:31;;;;;;;6.55;5.05;;;;;;;;;;5024667;28;20083;-38
2022/01/14 04:34:56;;;;;;;6.55;5.07;;;;;;;;;;5025195;28;20641;-41
2022/01/14 04:37:22;;;;;;;7.10;5.38;;;;;;;;;;5024911;28;20025;-41
2022/01/14 04:39:47;;;;;;;6.40;5.07;;;;;;;;;;5024600;28;20025;-38
2022/01/14 04:42:13;;;;;;;6.65;4.78;;;;;;;;;;5025143;28;20156;-38
2022/01/14 04:44:38;;;;;;;7.07;5.03;;;;;;;;;;5024602;28;20022;-37
2022/01/14 04:47:15;;;;;;;5.68;4.43;;;;;;;;;;5025267;28;20491;-37
2022/01/14 04:49:41;;;;;;;6.18;4.82;;;;;;;;;;5025017;28;20026;-41
2022/01/14 04:52:07;;;;;;;5.22;4.45;;;;;;;;;;5024697;28;20476;-39
2022/01/14 04:54:33;;;;;;;6.72;4.88;;;;;;;;;;5024785;28;20079;-39
2022/01/14 04:56:58;;;;;;;6.65;4.80;;;;;;;;;;5024981;28;20483;-40
2022/01/14 04:59:24;;;;;;;7.28;5.40;;;;;;;;;;5024721;28;20030;-39
2022/01/14 05:01:49;;;;;;;6.63;5.05;;;;;;;;;;5024484;28;20025;-40
2022/01/14 05:04:16;;;;;;;6.50;4.57;;;;;;;;;;5024853;28;20033;-41
2022/01/14 05:06:45;;;;;;;7.68;5.25;;;;;;;;;;5024129;28;20033;-38
2022/01/14 05:09:20;;;;;;;6.63;4.78;;;;;;;;;;5024821;28;20526;-39
2022/01/14 05:11:52;;;;;;;6.18;4.35;;;;;;;;;;5026733;28;20052;-39
2022/01/14 05:14:18;;;;;;;7.60;5.05;;;;;;;;;;5027787;28;20030;-41
2022/01/14 05:16:44;;;;;;;6.00;4.68;;;;;;;;;;5029306;28;20092;-41
2022/01/14 05:19:09;;;;;;;5.72;4.68;;;;;;;;;;5028493;28;20025;-40
2022/01/14 05:21:35;;;;;;;6.03;4.47;;;;;;;;;;5028219;28;20069;-39
2022/01/14 05:24:00;;;;;;;6.53;4.70;;;;;;;;;;5030828;28;20466;-39
2022/01/14 05:26:26;;;;;;;5.93;4.15;;;;;;;;;;5035653;28;20033;-39
2022/01/14 05:28:51;;;;;;;5.75;4.15;;;;;;;;;;5031817;28;20033;-41
2022/01/14 05:31:17;;;;;;;6.00;4.30;;;;;;;;;;5048198;28;20427;-39
2022/01/14 05:33:46;;;;;;;10.40;4.80;;;;;;;;;;5046140;28;20083;-38
2022/01/14 05:36:11;;;;;;;8.93;5.20;;;;;;;;;;5047871;28;20479;-40
2022/01/14 05:38:37;;;;;;;12.38;5.43;;;;;;;;;;5045479;28;20039;-37
2022/01/14 05:41:02;;;;;;;8.07;5.05;;;;;;;;;;5044283;28;20067;-39
2022/01/14 05:43:28;;;;;;;7.80;4.75;;;;;;;;;;5047119;28;20033;-41
2022/01/14 05:45:53;;;;;;;15.45;4.70;;;;;;;;;;5036675;28;20039;-38
2022/01/14 05:48:19;;;;;;;12.48;4.35;;;;;;;;;;5047327;28;20376;-39
2022/01/14 05:50:44;;;;;;;14.07;4.90;;;;;;;;;;5046639;28;20052;-39
2022/01/14 05:53:10;;;;;;;7.65;4.47;;;;;;;;;;5029832;28;20116;-38
2022/01/14 05:55:36;;;;;;;17.08;4.68;;;;;;;;;;5026914;28;20033;-39
2022/01/14 05:58:01;;;;;;;13.10;4.63;;;;;;;;;;5026680;28;20479;-36
2022/01/14 06:00:27;;;;;;;8.32;4.30;;;;;;;;;;5025656;28;20026;-41
2022/01/14 06:02:52;;;;;;;12.48;4.40;;;;;;;;;;5026410;28;20032;-41
2022/01/14 06:05:18;;;;;;;7.55;4.28;;;;;;;;;;5026317;28;20036;-39
2022/01/14 06:07:44;;;;;;;6.75;4.30;;;;;;;;;;5026888;28;20041;-39
2022/01/14 06:10:10;;;;;;;9.57;4.50;;;;;;;;;;5026079;28;20080;-39
2022/01/14 06:12:35;;;;;;;6.80;3.80;;;;;;;;;;5025915;28;20021;-38
2022/01/14 06:15:01;;;;;;;6.28;4.03;;;;;;;;;;5026046;28;20033;-39
2022/01/14 06:17:27;;;;;;;7.20;4.07;;;;;;;;;;5025906;28;20096;-40
2022/01/14 06:19:52;;;;;;;7.45;4.18;;;;;;;;;;5025606;28;20029;-41
2022/01/14 06:22:18;;;;;;;6.40;3.90;;;;;;;;;;5024858;28;20014;-38
2022/01/14 06:24:43;;;;;;;6.95;4.10;;;;;;;;;;5026087;28;20025;-40
2022/01/14 06:27:09;;;;;;;8.52;4.50;;;;;;;;;;5028876;28;20026;-39
2022/01/14 06:29:34;;;;;;;7.60;3.80;;;;;;;;;;5046858;28;20426;-41
2022/01/14 06:32:00;;;;;;;6.68;3.65;;;;;;;;;;5046997;28;20025;-41
2022/01/14 06:34:26;;;;;;;7.80;4.30;;;;;;;;;;5046967;28;20356;-39
2022/01/14 06:36:51;;;;;;;4.38;3.10;;;;;;;;;;5047048;28;20112;-37
2022/01/14 06:39:17;;;;;;;8.02;3.97;;;;;;;;;;5047185;28;20048;-40
2022/01/14 06:41:42;;;;;;;4.65;3.58;;;;;;;;;;5047921;28;20057;-40
2022/01/14 06:44:08;;;;;;;7.35;3.83;;;;;;;;;;5046606;28;20024;-39
2022/01/14 06:46:33;;;;;;;4.82;3.70;;;;;;;;;;5045422;28;20071;-40
2022/01/14 06:48:59;;;;;;;6.28;3.40;;;;;;;;;;5046817;28;20403;-40
2022/01/14 06:51:25;;;;;;;5.65;3.95;;;;;;;;;;5046892;28;20110;-40
2022/01/14 06:53:50;;;;;;;6.50;3.60;;;;;;;;;;5044627;28;20455;-34
2022/01/14 06:56:16;;;;;;;5.90;3.47;;;;;;;;;;5046353;28;20194;-40
2022/01/14 06:58:42;;;;;;;4.60;3.60;;;;;;;;;;5046578;28;20021;-38
2022/01/14 07:01:08;;;;;;;10.15;4.35;;;;;;;;;;5042363;28;20052;-39
2022/01/14 07:03:34;;;;;;;10.43;3.95;;;;;;;;;;5045623;28;20079;-42
2022/01/14 07:05:59;;;;;;;6.68;3.65;;;;;;;;;;5038808;28;20123;-37
2022/01/14 07:08:25;;;;;;;7.75;3.90;;;;;;;;;;5045366;28;20048;-40
2022/01/14 07:10:51;;;;;;;8.75;4.40;;;;;;;;;;5045486;28;20028;-39
2022/01/14 07:13:16;;;;;;;45.58;28.50;;;;;;;;;;5045911;28;20021;-41
2022/01/14 07:15:41;;;;;;;28.23;16.95;;;;;;;;;;5040942;28;20152;-41
2022/01/14 07:18:09;;;;;;;23.15;15.32;;;;;;;;;;5041341;28;20526;-41
2022/01/14 07:20:35;;;;;;;18.48;13.25;;;;;;;;;;5045121;28;20028;-40
2022/01/14 07:23:00;;;;;;;20.92;13.02;;;;;;;;;;5045941;28;20104;-40
2022/01/14 07:25:26;;;;;;;18.80;12.63;;;;;;;;;;5031529;28;20041;-39
2022/01/14 07:27:51;;;;;;;21.83;12.45;;;;;;;;;;5029285;28;20139;-39
2022/01/14 07:30:17;;;;;;;19.35;11.20;;;;;;;;;;5042155;28;20025;-37
2022/01/14 07:32:44;;;;;;;19.00;10.45;;;;;;;;;;5036639;28;20547;-41
2022/01/14 07:35:10;;;;;;;18.15;11.50;;;;;;;;;;5028489;28;20586;-39
2022/01/14 07:37:35;;;;;;;19.58;10.65;;;;;;;;;;5036581;28;20132;-40
2022/01/14 07:40:01;;;;;;;18.23;9.80;;;;;;;;;;5038731;28;20033;-40
2022/01/14 07:42:26;;;;;;;16.13;9.98;;;;;;;;;;5044084;28;20083;-36
2022/01/14 07:44:52;;;;;;;17.67;10.18;;;;;;;;;;5041373;28;20033;-40
2022/01/14 07:47:17;;;;;;;21.10;10.60;;;;;;;;;;5045605;28;20021;-40
2022/01/14 07:49:43;;;;;;;15.00;10.10;;;;;;;;;;5039039;28;20107;-39
2022/01/14 07:52:08;;;;;;;17.02;9.82;;;;;;;;;;5031864;28;20028;-40
2022/01/14 07:54:34;;;;;;;21.52;10.13;;;;;;;;;;5037151;28;20052;-35
2022/01/14 07:57:00;;;;;;;18.20;10.18;;;;;;;;;;5031178;28;20029;-38
2022/01/14 07:59:27;;;;;;;18.38;9.30;;;;;;;;;;5028330;28;20028;-38
2022/01/14 08:01:58;;;;;;;13.93;9.50;;;;;;;;;;5029487;28;20482;-39
2022/01/14 08:04:24;;;;;;;14.77;9.60;;;;;;;;;;5028237;28;20471;-41
2022/01/14 08:06:52;;;;;;;12.40;9.00;;;;;;;;;;5035339;28;20040;-41
2022/01/14 08:09:18;;;;;;;18.10;9.73;;;;;;;;;;5031713;28;20052;-41
2022/01/14 08:11:43;;;;;;;15.23;9.70;;;;;;;;;;5030203;28;20034;-40
2022/01/14 08:14:09;;;;;;;14.48;8.95;;;;;;;;;;5031135;28;20031;-38
2022/01/14 08:16:34;;;;;;;12.27;8.55;;;;;;;;;;5029352;28;20110;-38
2022/01/14 08:19:00;;;;;;;16.88;9.35;;;;;;;;;;5034946;28;20024;-40
2022/01/14 08:21:25;;;;;;;15.75;8.82;;;;;;;;;;5032600;28;20029;-40
2022/01/14 08:23:51;;;;;;;13.77;9.13;;;;;;;;;;5033334;28;20029;-39
2022/01/14 08:26:16;;;;;;;14.15;8.52;;;;;;;;;;5031723;28;20052;-38
2022/01/14 08:28:42;;;;;;;12.30;8.00;;;;;;;;;;5032314;28;20025;-40
2022/01/14 08:31:07;;;;;;;12.73;8.00;;;;;;;;;;5035385;28;20047;-38
2022/01/14 08:33:33;;;;;;;13.50;8.60;;;;;;;;;;5032440;28;20075;-40
2022/01/14 08:35:59;;;;;;;14.63;8.50;;;;;;;;;;5033087;28;20121;-38
2022/01/14 08:38:25;;;;;;;14.75;8.90;;;;;;;;;;5035566;28;20026;-39
2022/01/14 08:40:50;;;;;;;14.85;8.95;;;;;;;;;;5042464;28;20376;-39
2022/01/14 08:43:16;;;;;;;14.55;8.23;;;;;;;;;;5040243;28;20100;-41
2022/01/14 08:45:41;;;;;;;12.13;7.95;;;;;;;;;;5044871;28;20045;-39
2022/01/14 08:48:07;;;;;;;11.95;7.63;;;;;;;;;;5047361;28;20033;-41
2022/01/14 08:50:35;;;;;;;11.15;7.30;;;;;;;;;;5047584;28;20040;-38
2022/01/14 08:53:03;;;;;;;11.60;8.00;;;;;;;;;;5046163;28;20539;-39
2022/01/14 08:55:28;;;;;;;11.20;7.45;;;;;;;;;;5047324;28;20035;-40
2022/01/14 08:57:54;;;;;;;12.32;7.82;;;;;;;;;;5047188;28;20017;-36
2022/01/14 09:00:21;;;;;;;12.55;7.03;;;;;;;;;;5044781;28;20566;-41
2022/01/14 09:02:46;;;;;;;11.00;7.30;;;;;;;;;;5027544;28;20018;-39
2022/01/14 09:05:12;;;;;;;12.93;6.95;;;;;;;;;;5026871;28;20103;-41
2022/01/14 09:07:38;;;;;;;10.32;7.03;;;;;;;;;;5027246;28;20030;-41
2022/01/14 09:10:04;;;;;;;11.85;7.18;;;;;;;;;;5028249;28;20073;-39
2022/01/14 09:12:30;;;;;;;14.23;7.60;;;;;;;;;;5028666;28;20072;-41
2022/01/14 09:14:56;;;;;;;10.50;7.07;;;;;;;;;;5028121;28;20029;-41
2022/01/14 09:17:21;;;;;;;11.50;7.00;;;;;;;;;;5028958;28;20526;-38
2022/01/14 09:19:47;;;;;;;11.35;7.43;;;;;;;;;;5028769;28;20893;-42
2022/01/14 09:22:17;;;;;;;10.15;6.88;;;;;;;;;;5028341;28;20021;-41
2022/01/14 09:24:43;;;;;;;9.57;6.75;;;;;;;;;;5027765;28;20030;-39
2022/01/14 09:27:09;;;;;;;8.95;6.53;;;;;;;;;;5028112;28;20527;-42
2022/01/14 09:29:35;;;;;;;9.85;6.70;;;;;;;;;;5028149;28;20045;-39
2022/01/14 09:32:00;;;;;;;8.98;6.72;;;;;;;;;;5028463;28;20061;-41
2022/01/14 09:34:26;;;;;;;10.88;6.65;;;;;;;;;;5028496;28;20480;-41
2022/01/14 09:36:51;;;;;;;9.10;6.47;;;;;;;;;;5028050;28;20029;-40
2022/01/14 09:39:17;;;;;;;9.38;6.55;;;;;;;;;;5027979;28;20083;-39
2022/01/14 09:41:43;;;;;;;8.98;6.10;;;;;;;;;;5027734;28;20026;-38
2022/01/14 09:44:08;;;;;;;8.48;6.00;;;;;;;;;;5027830;28;20619;-39
2022/01/14 09:46:33;;;;;;;9.05;5.82;;;;;;;;;;5027220;28;20061;-41
2022/01/14 09:48:59;;;;;;;8.60;5.97;;;;;;;;;;5027776;28;20040;-40
2022/01/14 09:51:25;;;;;;;8.68;5.90;;;;;;;;;;5028006;28;20033;-40
2022/01/14 09:53:50;;;;;;;9.70;6.25;;;;;;;;;;5028053;28;20100;-41
2022/01/14 09:56:20;;;;;;;8.05;5.45;;;;;;;;;;5027819;28;20025;-38
2022/01/14 09:58:49;;;;;;;8.75;5.97;;;;;;;;;;5027826;28;20025;-39
2022/01/14 10:01:19;;;;;;;7.47;5.55;;;;;;;;;;5027695;28;20037;-40
2022/01/14 10:03:52;;;;;;;7.68;5.35;;;;;;;;;;5026273;28;20578;-40
2022/01/14 10:06:35;;;;;;;7.10;5.22;;;;;;;;;;5027593;28;20503;-37
2022/01/14 10:09:09;;;;;;;9.02;6.05;;;;;;;;;;5027233;28;20049;-38
2022/01/14 10:11:36;;;;;;;7.90;5.28;;;;;;;;;;5026912;28;20063;-40
2022/01/14 10:14:12;;;;;;;7.07;5.18;;;;;;;;;;5027185;28;20044;-41
2022/01/14 10:16:41;;;;;;;6.40;5.18;;;;;;;;;;5025856;28;20526;-40
2022/01/14 10:19:23;;;;;;;8.75;5.90;;;;;;;;;;5027454;28;20036;-38
2022/01/14 10:21:49;;;;;;;7.50;5.10;;;;;;;;;;5027252;28;20044;-38
2022/01/14 10:24:15;;;;;;;8.30;5.07;;;;;;;;;;5034355;28;20240;-41
2022/01/14 10:26:55;;;;;;;6.70;4.90;;;;;;;;;;5041706;28;20835;-41
2022/01/14 10:29:28;;;;;;;6.50;4.75;;;;;;;;;;5031498;28;20056;-39
2022/01/14 10:31:54;;;;;;;7.45;5.05;;;;;;;;;;5045368;28;20032;-37
2022/01/14 10:34:20;;;;;;;7.00;5.03;;;;;;;;;;5026695;28;20041;-37
2022/01/14 10:36:47;;;;;;;6.93;4.85;;;;;;;;;;5026138;28;20022;-38
2022/01/14 10:39:24;;;;;;;6.38;4.60;;;;;;;;;;5026628;28;20034;-38
2022/01/14 10:41:52;;;;;;;6.10;4.53;;;;;;;;;;5026086;28;20036;-40
2022/01/14 10:44:32;;;;;;;6.45;4.82;;;;;;;;;;5026906;28;20026;-41
2022/01/14 10:47:12;;;;;;;5.95;4.80;;;;;;;;;;5026036;28;20044;-41
2022/01/14 10:49:37;;;;;;;6.40;4.82;;;;;;;;;;5026265;28;20029;-41
2022/01/14 10:52:23;;;;;;;6.97;4.88;;;;;;;;;;5026734;28;20034;-40
2022/01/14 10:54:53;;;;;;;5.95;4.68;;;;;;;;;;5026335;28;20025;-35
2022/01/14 10:57:28;;;;;;;8.57;5.00;;;;;;;;;;5026573;28;20033;-38
2022/01/14 10:59:56;;;;;;;6.22;4.47;;;;;;;;;;5026578;28;20828;-36
2022/01/14 11:02:34;;;;;;;6.18;4.63;;;;;;;;;;5026164;28;20529;-40
2022/01/14 11:05:16;;;;;;;5.25;4.30;;;;;;;;;;5027431;28;20045;-41
2022/01/14 11:07:42;;;;;;;6.47;4.72;;;;;;;;;;5026473;28;20063;-40
2022/01/14 11:10:28;;;;;;;6.43;4.80;;;;;;;;;;5025911;28;20416;-41
2022/01/14 11:12:54;;;;;;;5.85;4.55;;;;;;;;;;5026500;28;20026;-40
2022/01/14 11:15:21;;;;;;;6.22;4.47;;;;;;;;;;5026396;28;20446;-38
2022/01/14 11:17:50;;;;;;;5.68;4.25;;;;;;;;;;5026396;28;20080;-38
2022/01/14 11:20:22;;;;;;;4.97;4.13;;;;;;;;;;5026114;28;20108;-39
2022/01/14 11:25:31;;;;;;;4.88;3.83;;;;;;;;;;5026114;28;20447;-41
2022/01/14 11:27:58;;;;;;;5.80;4.55;;;;;;;;;;5025997;28;20025;-36
2022/01/14 11:30:38;;;;;;;5.07;3.90;;;;;;;;;;5025739;28;20038;-40
2022/01/14 11:33:03;;;;;;;6.70;4.50;;;;;;;;;;5025760;28;20060;-40
2022/01/14 11:35:29;;;;;;;5.63;4.15;;;;;;;;;;5036554;28;20025;-37
2022/01/14 11:37:55;;;;;;;6.88;4.80;;;;;;;;;;5045634;28;20400;-40
2022/01/14 11:40:21;;;;;;;5.47;4.15;;;;;;;;;;5045672;28;20029;-40
2022/01/14 11:42:59;;;;;;;5.50;4.18;;;;;;;;;;5045338;28;20099;-40
2022/01/14 11:45:46;;;;;;;6.28;4.38;;;;;;;;;;5045339;28;20032;-40
2022/01/14 11:48:35;;;;;;;6.50;4.53;;;;;;;;;;5045284;28;20036;-36
2022/01/14 11:51:05;;;;;;;4.70;3.83;;;;;;;;;;5045148;28;20625;-37
2022/01/14 11:53:41;;;;;;;5.25;3.90;;;;;;;;;;5045304;28;20423;-40
2022/01/14 11:56:27;;;;;;;5.80;4.57;;;;;;;;;;5044976;28;20029;-40
2022/01/14 11:58:53;;;;;;;7.18;4.35;;;;;;;;;;5044772;28;20025;-38
2022/01/14 12:01:33;;;;;;;7.72;4.57;;;;;;;;;;5043821;28;20403;-37
2022/01/14 12:04:00;;;;;;;4.38;3.78;;;;;;;;;;5032554;28;20064;-39
2022/01/14 12:06:26;;;;;;;4.95;3.72;;;;;;;;;;5034076;28;20030;-41
2022/01/14 12:09:02;;;;;;;5.70;4.07;;;;;;;;;;5035886;28;20048;-42
2022/01/14 12:11:29;;;;;;;5.28;3.60;;;;;;;;;;5041436;28;20067;-41
2022/01/14 12:14:01;;;;;;;7.28;3.97;;;;;;;;;;5060047;28;20044;-38
2022/01/14 12:18:57;;;;;;;6.45;4.15;;;;;;;;;;5044172;28;20488;-39
2022/01/14 12:21:38;;;;;;;5.47;4.10;;;;;;;;;;5043598;28;20107;-35
2022/01/14 12:26:57;;;;;;;4.72;3.90;;;;;;;;;;5044240;28;20037;-38
2022/01/14 12:29:36;;;;;;;6.45;4.20;;;;;;;;;;5045020;28;20036;-40
2022/01/14 12:32:02;;;;;;;5.88;4.07;;;;;;;;;;5043909;28;20028;-41
2022/01/14 12:34:28;;;;;;;9.38;4.30;;;;;;;;;;5043737;28;20032;-38
2022/01/14 12:36:53;;;;;;;5.68;4.18;;;;;;;;;;5043925;28;20029;-39
2022/01/14 12:39:19;;;;;;;4.78;4.00;;;;;;;;;;5043607;28;20941;-40
2022/01/14 12:41:44;;;;;;;5.95;4.47;;;;;;;;;;5043734;28;20029;-41
2022/01/14 12:44:10;;;;;;;4.78;4.00;;;;;;;;;;5043865;28;20469;-41
2022/01/14 12:46:53;;;;;;;5.30;3.72;;;;;;;;;;5044667;28;20025;-37
2022/01/14 12:49:21;;;;;;;6.20;4.38;;;;;;;;;;5044966;28;20033;-39
2022/01/14 12:51:58;;;;;;;6.43;4.10;;;;;;;;;;5060063;28;20569;-41
2022/01/14 12:54:24;;;;;;;4.60;3.67;;;;;;;;;;5058378;28;20028;-39
2022/01/14 12:56:51;;;;;;;4.88;3.90;;;;;;;;;;5042708;28;20036;-36
2022/01/14 12:59:17;;;;;;;4.35;3.58;;;;;;;;;;5044277;28;20517;-37
2022/01/14 13:01:49;;;;;;;5.85;3.88;;;;;;;;;;5040998;28;20018;-38
2022/01/14 13:04:16;;;;;;;6.40;4.28;;;;;;;;;;5030904;28;20039;-40
2022/01/14 13:06:49;;;;;;;5.18;3.63;;;;;;;;;;5027731;28;20392;-37
2022/01/14 13:09:19;;;;;;;5.55;4.18;;;;;;;;;;5024410;28;20045;-40
2022/01/14 13:11:57;;;;;;;4.55;3.75;;;;;;;;;;5024309;28;20022;-39
2022/01/14 13:14:27;;;;;;;5.13;3.85;;;;;;;;;;5024524;28;20060;-41
2022/01/14 13:16:56;;;;;;;5.70;3.33;;;;;;;;;;5024951;28;20030;-40
2022/01/14 13:19:32;;;;;;;6.95;3.95;;;;;;;;;;5024969;28;20025;-40
2022/01/14 13:21:59;;;;;;;12.05;3.78;;;;;;;;;;5024900;28;20057;-41
2022/01/14 13:24:29;;;;;;;6.13;3.65;;;;;;;;;;5024849;28;20451;-40
2022/01/14 13:27:27;;;;;;;5.32;4.15;;;;;;;;;;5024484;28;20029;-36
2022/01/14 13:29:54;;;;;;;11.43;5.45;;;;;;;;;;5018679;28;20029;-41
2022/01/14 13:32:21;;;;;;;9.68;5.53;;;;;;;;;;5026321;28;20029;-39
2022/01/14 13:34:49;;;;;;;13.55;5.75;;;;;;;;;;5028236;28;20112;-38
2022/01/14 13:37:19;;;;;;;13.00;5.10;;;;;;;;;;5027583;28;20079;-36
2022/01/14 13:39:44;;;;;;;12.50;4.72;;;;;;;;;;5028155;28;20040;-41
2022/01/14 13:42:23;;;;;;;7.85;4.72;;;;;;;;;;5026122;28;20531;-39
2022/01/14 13:44:49;;;;;;;8.70;4.53;;;;;;;;;;5028071;28;20495;-38
2022/01/14 13:47:22;;;;;;;10.27;4.93;;;;;;;;;;5028208;28;20459;-42
2022/01/14 13:49:47;;;;;;;;;;;;;;;;;;5028414;28;20068;-40
2022/01/14 13:52:14;;;;;;;13.65;5.38;;;;;;;;;;5027853;28;19956;-39
2022/01/14 13:54:40;;;;;;;10.60;5.88;;;;;;;;;;5029622;28;20508;-40
2022/01/14 13:57:13;;;;;;;9.15;5.32;;;;;;;;;;5035894;28;20024;-39
2022/01/14 13:59:39;;;;;;;9.38;5.60;;;;;;;;;;5047387;28;20021;-36
2022/01/14 14:02:07;;;;;;;10.88;5.40;;;;;;;;;;5038386;28;20395;-41
2022/01/14 14:04:37;;;;;;;7.22;4.97;;;;;;;;;;5034027;28;20029;-36
2022/01/14 14:07:07;;;;;;;9.57;5.35;;;;;;;;;;5052640;28;20102;-42
2022/01/14 14:09:45;;;;;;;8.20;5.30;;;;;;;;;;5046033;28;20224;-41
2022/01/14 14:12:40;;;;;;;7.13;5.18;;;;;;;;;;5044668;28;20029;-41
2022/01/14 14:18:03;;;;;;;8.75;5.32;;;;;;;;;;5026540;28;20184;-40
2022/01/14 14:20:29;;;;;;;8.43;5.43;;;;;;;;;;5036038;28;20032;-37
2022/01/14 14:22:54;;;;;;;9.13;5.15;;;;;;;;;;5044905;28;20060;-40
2022/01/14 14:25:26;;;;;;;10.20;5.72;;;;;;;;;;5045166;28;20029;-40
2022/01/14 14:28:05;;;;;;;6.47;4.53;;;;;;;;;;5041976;28;20029;-38
2022/01/14 14:30:57;;;;;;;7.32;5.03;;;;;;;;;;5029579;28;20025;-41
2022/01/14 14:33:22;;;;;;;8.18;4.80;;;;;;;;;;5037743;28;20037;-38
2022/01/14 14:35:49;;;;;;;6.97;5.03;;;;;;;;;;5035367;28;20044;-41
2022/01/14 14:38:18;;;;;;;10.43;5.68;;;;;;;;;;5037415;28;20022;-39
2022/01/14 14:40:50;;;;;;;9.32;5.57;;;;;;;;;;5034733;28;20025;-41
2022/01/14 14:43:15;;;;;;;8.30;4.90;;;;;;;;;;5031502;28;20029;-40
2022/01/14 14:45:41;;;;;;;9.38;5.05;;;;;;;;;;5038563;28;20040;-41
2022/01/14 14:48:12;;;;;;;8.93;5.53;;;;;;;;;;5036352;28;20053;-41
2022/01/14 14:50:38;;;;;;;7.32;5.45;;;;;;;;;;5037950;28;20507;-38
2022/01/14 14:53:04;;;;;;;6.35;4.97;;;;;;;;;;5038875;28;20032;-37
2022/01/14 14:55:31;;;;;;;9.38;4.93;;;;;;;;;;5036756;28;20036;-41
2022/01/14 14:58:00;;;;;;;7.82;5.78;;;;;;;;;;5040779;28;20012;-41
2022/01/14 15:00:27;;;;;;;8.85;6.32;;;;;;;;;;5034343;28;20029;-38
2022/01/14 15:02:54;;;;;;;9.25;6.43;;;;;;;;;;5036179;28;20114;-40
2022/01/14 15:05:19;;;;;;;7.45;5.18;;;;;;;;;;5037613;28;20118;-39
2022/01/14 15:07:45;;;;;;;7.68;5.40;;;;;;;;;;5031270;28;20071;-39
2022/01/14 15:10:12;;;;;;;7.35;5.47;;;;;;;;;;5040009;28;20036;-39
2022/01/14 15:12:37;;;;;;;8.73;5.38;;;;;;;;;;5034597;28;20028;-41